sensor_id;sensor_type;location;lat;lon;timestamp;pressure;altitude;pressure_sealevel;temperature;humidity
17311;BME280;8773;43.300;0.394;2024-01-16T00:01:08;99177.41;;;11.45;100.00
17311;BME280;8773;43.300;0.394;2024-01-16T00:03:38;99167.06;;;11.42;100.00
17311;BME280;8773;43.300;0.394;2024-01-16T00:06:05;99174.13;;;11.35;100.00
17311;BME280;8773;43.300;0.394;2024-01-16T00:08:33;99178.50;;;11.20;100.00
17311;BME280;8773;43.300;0.394;2024-01-16T00:11:01;99173.34;;;11.10;100.00
17311;BME280;8773;43.300;0.394;2024-01-16T00:13:29;99161.81;;;11.18;100.00
17311;BME280;8773;43.300;0.394;2024-01-16T00:15:56;99162.63;;;11.26;100.00
17311;BME280;8773;43.300;0.394;2024-01-16T00:18:23;99149.13;;;11.12;100.00
17311;BME280;8773;43.300;0.394;2024-01-16T00:20:52;99163.94;;;11.30;100.00
17311;BME280;8773;43.300;0.394;2024-01-16T00:23:20;99149.41;;;11.25;100.00
17311;BME280;8773;43.300;0.394;2024-01-16T00:25:47;99139.28;;;11.12;100.00
17311;BME280;8773;43.300;0.394;2024-01-16T00:28:14;99140.72;;;11.23;100.00
17311;BME280;8773;43.300;0.394;2024-01-16T00:30:42;99135.41;;;11.23;100.00
17311;BME280;8773;43.300;0.394;2024-01-16T00:33:09;99142.41;;;11.24;100.00
17311;BME280;8773;43.300;0.394;2024-01-16T00:35:37;99141.94;;;11.12;100.00
17311;BME280;8773;43.300;0.394;2024-01-16T00:38:06;99143.09;;;11.18;100.00
17311;BME280;8773;43.300;0.394;2024-01-16T00:40:33;99133.09;;;11.12;100.00
17311;BME280;8773;43.300;0.394;2024-01-16T00:43:00;99147.09;;;11.22;100.00
17311;BME280;8773;43.300;0.394;2024-01-16T00:45:28;99139.75;;;11.16;100.00
17311;BME280;8773;43.300;0.394;2024-01-16T00:47:55;99139.06;;;11.22;100.00
17311;BME280;8773;43.300;0.394;2024-01-16T00:50:23;99149.41;;;11.25;100.00
17311;BME280;8773;43.300;0.394;2024-01-16T00:52:50;99138.06;;;11.31;100.00
17311;BME280;8773;43.300;0.394;2024-01-16T00:55:19;99084.72;;;11.06;100.00
17311;BME280;8773;43.300;0.394;2024-01-16T00:57:46;99133.84;;;11.36;100.00
17311;BME280;8773;43.300;0.394;2024-01-16T01:00:13;99134.34;;;11.40;100.00
17311;BME280;8773;43.300;0.394;2024-01-16T01:02:41;99128.66;;;11.43;100.00
17311;BME280;8773;43.300;0.394;2024-01-16T01:05:08;99127.75;;;11.51;100.00
17311;BME280;8773;43.300;0.394;2024-01-16T01:07:36;99122.63;;;11.41;100.00
17311;BME280;8773;43.300;0.394;2024-01-16T01:10:04;99134.00;;;11.43;100.00
17311;BME280;8773;43.300;0.394;2024-01-16T01:12:32;99140.66;;;11.47;100.00
17311;BME280;8773;43.300;0.394;2024-01-16T01:15:01;99139.66;;;11.48;100.00
17311;BME280;8773;43.300;0.394;2024-01-16T01:17:28;99134.47;;;11.47;100.00
17311;BME280;8773;43.300;0.394;2024-01-16T01:19:56;99133.69;;;11.38;100.00
17311;BME280;8773;43.300;0.394;2024-01-16T01:22:23;99133.19;;;11.34;100.00
17311;BME280;8773;43.300;0.394;2024-01-16T01:24:51;99137.34;;;11.37;100.00
17311;BME280;8773;43.300;0.394;2024-01-16T01:27:18;99138.97;;;11.46;100.00
17311;BME280;8773;43.300;0.394;2024-01-16T01:29:47;99140.97;;;11.52;100.00
17311;BME280;8773;43.300;0.394;2024-01-16T01:32:14;99148.41;;;11.34;100.00
17311;BME280;8773;43.300;0.394;2024-01-16T01:34:41;99145.00;;;11.09;100.00
17311;BME280;8773;43.300;0.394;2024-01-16T01:37:09;99146.28;;;11.13;100.00
17311;BME280;8773;43.300;0.394;2024-01-16T01:39:36;99144.06;;;11.25;100.00
17311;BME280;8773;43.300;0.394;2024-01-16T01:42:04;99153.28;;;11.14;100.00
17311;BME280;8773;43.300;0.394;2024-01-16T01:44:31;99139.41;;;11.19;100.00
17311;BME280;8773;43.300;0.394;2024-01-16T01:47:00;99154.94;;;11.31;100.00
17311;BME280;8773;43.300;0.394;2024-01-16T01:49:28;99152.00;;;11.49;100.00
17311;BME280;8773;43.300;0.394;2024-01-16T01:51:55;99150.44;;;11.55;100.00
17311;BME280;8773;43.300;0.394;2024-01-16T01:54:24;99157.03;;;11.44;100.00
17311;BME280;8773;43.300;0.394;2024-01-16T01:56:51;99152.34;;;11.46;100.00
17311;BME280;8773;43.300;0.394;2024-01-16T01:59:20;99164.72;;;11.47;100.00
17311;BME280;8773;43.300;0.394;2024-01-16T02:01:50;99166.44;;;11.32;100.00
17311;BME280;8773;43.300;0.394;2024-01-16T02:04:20;99150.72;;;11.37;100.00
17311;BME280;8773;43.300;0.394;2024-01-16T02:06:48;99147.22;;;11.36;100.00
17311;BME280;8773;43.300;0.394;2024-01-16T02:09:16;99156.59;;;11.32;100.00
17311;BME280;8773;43.300;0.394;2024-01-16T02:11:43;99150.50;;;11.47;100.00
17311;BME280;8773;43.300;0.394;2024-01-16T02:14:10;99165.41;;;11.41;100.00
17311;BME280;8773;43.300;0.394;2024-01-16T02:16:39;99147.72;;;11.40;100.00
17311;BME280;8773;43.300;0.394;2024-01-16T02:19:07;99151.38;;;11.39;100.00
17311;BME280;8773;43.300;0.394;2024-01-16T02:21:38;99148.88;;;11.37;100.00
17311;BME280;8773;43.300;0.394;2024-01-16T02:24:08;99137.97;;;11.47;100.00
17311;BME280;8773;43.300;0.394;2024-01-16T02:26:36;99129.66;;;11.42;100.00
17311;BME280;8773;43.300;0.394;2024-01-16T02:29:04;99132.19;;;11.58;100.00
17311;BME280;8773;43.300;0.394;2024-01-16T02:31:31;99134.88;;;11.58;100.00
17311;BME280;8773;43.300;0.394;2024-01-16T02:33:59;99141.88;;;11.59;100.00
17311;BME280;8773;43.300;0.394;2024-01-16T02:36:27;99146.19;;;11.68;100.00
17311;BME280;8773;43.300;0.394;2024-01-16T02:38:54;99151.66;;;11.75;100.00
17311;BME280;8773;43.300;0.394;2024-01-16T02:41:23;99150.34;;;11.71;100.00
17311;BME280;8773;43.300;0.394;2024-01-16T02:43:51;99148.91;;;11.60;100.00
17311;BME280;8773;43.300;0.394;2024-01-16T02:46:18;99142.03;;;11.66;100.00
17311;BME280;8773;43.300;0.394;2024-01-16T02:48:45;99153.44;;;11.83;100.00
17311;BME280;8773;43.300;0.394;2024-01-16T02:51:13;99158.31;;;11.79;100.00
17311;BME280;8773;43.300;0.394;2024-01-16T02:53:40;99141.66;;;11.69;100.00
17311;BME280;8773;43.300;0.394;2024-01-16T02:56:08;99151.03;;;11.65;100.00
17311;BME280;8773;43.300;0.394;2024-01-16T02:58:37;99140.44;;;11.80;100.00
17311;BME280;8773;43.300;0.394;2024-01-16T03:01:04;99143.09;;;11.80;100.00
17311;BME280;8773;43.300;0.394;2024-01-16T03:03:32;99134.47;;;11.69;100.00
17311;BME280;8773;43.300;0.394;2024-01-16T03:05:59;99130.72;;;11.56;100.00
17311;BME280;8773;43.300;0.394;2024-01-16T03:08:27;99141.13;;;11.73;100.00
17311;BME280;8773;43.300;0.394;2024-01-16T03:10:54;99138.22;;;11.60;100.00
17311;BME280;8773;43.300;0.394;2024-01-16T03:13:21;99134.78;;;11.74;100.00
17311;BME280;8773;43.300;0.394;2024-01-16T03:15:50;99132.63;;;11.47;100.00
17311;BME280;8773;43.300;0.394;2024-01-16T03:18:17;99128.81;;;11.64;100.00
17311;BME280;8773;43.300;0.394;2024-01-16T03:20:45;99118.25;;;11.71;100.00
17311;BME280;8773;43.300;0.394;2024-01-16T03:23:12;99122.88;;;11.77;100.00
17311;BME280;8773;43.300;0.394;2024-01-16T03:25:40;99128.00;;;11.64;100.00
17311;BME280;8773;43.300;0.394;2024-01-16T03:28:07;99137.75;;;11.80;100.00
17311;BME280;8773;43.300;0.394;2024-01-16T03:30:34;99130.50;;;11.88;100.00
17311;BME280;8773;43.300;0.394;2024-01-16T03:33:04;99128.00;;;11.87;100.00
17311;BME280;8773;43.300;0.394;2024-01-16T03:35:32;99123.97;;;11.91;100.00
17311;BME280;8773;43.300;0.394;2024-01-16T03:37:59;99098.88;;;11.69;100.00
17311;BME280;8773;43.300;0.394;2024-01-16T03:40:27;99132.16;;;11.89;100.00
17311;BME280;8773;43.300;0.394;2024-01-16T03:42:54;99131.53;;;12.02;100.00
17311;BME280;8773;43.300;0.394;2024-01-16T03:45:22;99133.94;;;11.74;100.00
17311;BME280;8773;43.300;0.394;2024-01-16T03:47:49;99128.13;;;11.70;100.00
17311;BME280;8773;43.300;0.394;2024-01-16T03:50:18;99126.69;;;11.83;100.00
17311;BME280;8773;43.300;0.394;2024-01-16T03:52:45;99123.66;;;11.86;100.00
17311;BME280;8773;43.300;0.394;2024-01-16T03:55:12;99122.66;;;11.87;100.00
17311;BME280;8773;43.300;0.394;2024-01-16T03:57:40;99112.06;;;11.93;100.00
17311;BME280;8773;43.300;0.394;2024-01-16T04:00:08;99113.81;;;12.01;100.00
17311;BME280;8773;43.300;0.394;2024-01-16T04:02:37;99116.63;;;12.07;100.00
17311;BME280;8773;43.300;0.394;2024-01-16T04:05:04;99120.47;;;12.05;100.00
17311;BME280;8773;43.300;0.394;2024-01-16T04:07:33;99122.03;;;11.99;100.00
17311;BME280;8773;43.300;0.394;2024-01-16T04:10:01;99115.84;;;11.99;100.00
17311;BME280;8773;43.300;0.394;2024-01-16T04:12:28;99119.47;;;12.06;100.00
17311;BME280;8773;43.300;0.394;2024-01-16T04:14:55;99109.47;;;12.00;100.00
17311;BME280;8773;43.300;0.394;2024-01-16T04:17:23;99108.59;;;12.07;100.00
17311;BME280;8773;43.300;0.394;2024-01-16T04:19:50;99107.88;;;12.14;100.00
17311;BME280;8773;43.300;0.394;2024-01-16T04:22:17;99115.28;;;12.26;100.00
17311;BME280;8773;43.300;0.394;2024-01-16T04:24:46;99102.03;;;12.10;100.00
17311;BME280;8773;43.300;0.394;2024-01-16T04:27:13;99106.91;;;11.92;100.00
17311;BME280;8773;43.300;0.394;2024-01-16T04:29:41;99112.13;;;11.85;100.00
17311;BME280;8773;43.300;0.394;2024-01-16T04:32:08;99111.13;;;11.86;100.00
17311;BME280;8773;43.300;0.394;2024-01-16T04:34:36;99111.53;;;11.75;100.00
17311;BME280;8773;43.300;0.394;2024-01-16T04:37:03;99105.31;;;11.83;100.00
17311;BME280;8773;43.300;0.394;2024-01-16T04:39:30;99112.16;;;12.00;100.00
17311;BME280;8773;43.300;0.394;2024-01-16T04:41:59;99097.94;;;11.85;100.00
17311;BME280;8773;43.300;0.394;2024-01-16T04:44:26;99100.53;;;11.93;100.00
17311;BME280;8773;43.300;0.394;2024-01-16T04:46:54;99089.38;;;12.04;100.00
17311;BME280;8773;43.300;0.394;2024-01-16T04:49:21;99100.25;;;12.02;100.00
17311;BME280;8773;43.300;0.394;2024-01-16T04:51:48;99099.44;;;12.02;100.00
17311;BME280;8773;43.300;0.394;2024-01-16T04:54:16;99100.78;;;11.83;100.00
17311;BME280;8773;43.300;0.394;2024-01-16T04:56:43;99088.25;;;11.84;100.00
17311;BME280;8773;43.300;0.394;2024-01-16T04:59:12;99102.75;;;12.04;100.00
17311;BME280;8773;43.300;0.394;2024-01-16T05:01:43;99088.91;;;11.86;100.00
17311;BME280;8773;43.300;0.394;2024-01-16T05:04:10;99080.09;;;11.54;100.00
17311;BME280;8773;43.300;0.394;2024-01-16T05:06:37;99117.66;;;11.84;100.00
17311;BME280;8773;43.300;0.394;2024-01-16T05:09:05;99110.66;;;11.83;100.00
17311;BME280;8773;43.300;0.394;2024-01-16T05:11:32;99109.31;;;11.56;100.00
17311;BME280;8773;43.300;0.394;2024-01-16T05:14:00;99108.44;;;11.63;100.00
17311;BME280;8773;43.300;0.394;2024-01-16T05:16:28;99109.28;;;11.64;100.00
17311;BME280;8773;43.300;0.394;2024-01-16T05:18:56;99076.41;;;11.32;100.00
17311;BME280;8773;43.300;0.394;2024-01-16T05:21:23;99108.94;;;11.44;100.00
17311;BME280;8773;43.300;0.394;2024-01-16T05:23:50;99093.59;;;11.38;100.00
17311;BME280;8773;43.300;0.394;2024-01-16T05:26:18;99103.75;;;11.43;100.00
17311;BME280;8773;43.300;0.394;2024-01-16T05:28:45;99091.31;;;11.27;100.00
17311;BME280;8773;43.300;0.394;2024-01-16T05:31:12;99104.16;;;11.23;100.00
17311;BME280;8773;43.300;0.394;2024-01-16T05:33:41;99108.13;;;11.04;100.00
17311;BME280;8773;43.300;0.394;2024-01-16T05:36:08;99109.50;;;10.92;100.00
17311;BME280;8773;43.300;0.394;2024-01-16T05:38:36;99112.69;;;10.88;100.00
17311;BME280;8773;43.300;0.394;2024-01-16T05:41:03;99110.53;;;10.83;100.00
17311;BME280;8773;43.300;0.394;2024-01-16T05:43:31;99110.91;;;10.72;100.00
17311;BME280;8773;43.300;0.394;2024-01-16T05:45:58;99096.47;;;10.50;100.00
17311;BME280;8773;43.300;0.394;2024-01-16T05:48:25;99115.47;;;10.55;100.00
17311;BME280;8773;43.300;0.394;2024-01-16T05:50:54;99115.00;;;10.43;100.00
17311;BME280;8773;43.300;0.394;2024-01-16T05:53:22;99119.84;;;10.40;100.00
17311;BME280;8773;43.300;0.394;2024-01-16T05:55:49;99118.00;;;10.49;100.00
17311;BME280;8773;43.300;0.394;2024-01-16T05:58:16;99125.16;;;10.48;100.00
17311;BME280;8773;43.300;0.394;2024-01-16T06:00:44;99110.97;;;10.56;100.00
17311;BME280;8773;43.300;0.394;2024-01-16T06:03:11;99122.28;;;10.66;100.00
17311;BME280;8773;43.300;0.394;2024-01-16T06:05:39;99117.41;;;10.69;100.00
17311;BME280;8773;43.300;0.394;2024-01-16T06:08:07;99114.28;;;10.66;100.00
17311;BME280;8773;43.300;0.394;2024-01-16T06:10:35;99107.13;;;10.58;100.00
17311;BME280;8773;43.300;0.394;2024-01-16T06:13:02;99104.31;;;10.52;100.00
17311;BME280;8773;43.300;0.394;2024-01-16T06:15:30;99097.47;;;10.41;100.00
17311;BME280;8773;43.300;0.394;2024-01-16T06:17:57;99108.66;;;10.45;100.00
17311;BME280;8773;43.300;0.394;2024-01-16T06:20:25;99103.16;;;10.38;100.00
17311;BME280;8773;43.300;0.394;2024-01-16T06:22:52;99100.00;;;10.26;100.00
17311;BME280;8773;43.300;0.394;2024-01-16T06:25:21;99104.66;;;10.32;100.00
17311;BME280;8773;43.300;0.394;2024-01-16T06:27:48;99119.69;;;10.25;100.00
17311;BME280;8773;43.300;0.394;2024-01-16T06:30:15;99107.88;;;10.20;100.00
17311;BME280;8773;43.300;0.394;2024-01-16T06:32:43;99104.22;;;10.13;100.00
17311;BME280;8773;43.300;0.394;2024-01-16T06:35:12;99099.72;;;10.05;100.00
17311;BME280;8773;43.300;0.394;2024-01-16T06:37:39;99091.56;;;9.90;100.00
17311;BME280;8773;43.300;0.394;2024-01-16T06:40:07;99106.72;;;10.06;100.00
17311;BME280;8773;43.300;0.394;2024-01-16T06:42:36;99111.72;;;10.01;100.00
17311;BME280;8773;43.300;0.394;2024-01-16T06:45:04;99103.22;;;9.97;100.00
17311;BME280;8773;43.300;0.394;2024-01-16T06:47:32;99104.38;;;9.95;100.00
17311;BME280;8773;43.300;0.394;2024-01-16T06:49:59;99100.72;;;9.88;100.00
17311;BME280;8773;43.300;0.394;2024-01-16T06:52:27;99100.03;;;9.78;100.00
17311;BME280;8773;43.300;0.394;2024-01-16T06:54:54;99108.03;;;9.69;100.00
17311;BME280;8773;43.300;0.394;2024-01-16T06:57:21;99100.69;;;9.71;100.00
17311;BME280;8773;43.300;0.394;2024-01-16T06:59:50;99093.38;;;9.65;100.00
17311;BME280;8773;43.300;0.394;2024-01-16T07:02:17;99094.69;;;9.53;100.00
17311;BME280;8773;43.300;0.394;2024-01-16T07:04:45;99099.69;;;9.56;100.00
17311;BME280;8773;43.300;0.394;2024-01-16T07:07:12;99111.50;;;9.54;100.00
17311;BME280;8773;43.300;0.394;2024-01-16T07:09:39;99115.66;;;9.48;100.00
17311;BME280;8773;43.300;0.394;2024-01-16T07:12:07;99120.44;;;9.36;100.00
17311;BME280;8773;43.300;0.394;2024-01-16T07:14:34;99120.47;;;9.28;100.00
17311;BME280;8773;43.300;0.394;2024-01-16T07:17:03;99117.63;;;9.38;100.00
17311;BME280;8773;43.300;0.394;2024-01-16T07:19:30;99112.66;;;9.43;100.00
17311;BME280;8773;43.300;0.394;2024-01-16T07:21:58;99116.31;;;9.42;100.00
17311;BME280;8773;43.300;0.394;2024-01-16T07:24:25;99116.66;;;9.47;100.00
17311;BME280;8773;43.300;0.394;2024-01-16T07:26:53;99121.50;;;9.52;100.00
17311;BME280;8773;43.300;0.394;2024-01-16T07:29:20;99107.31;;;9.43;100.00
17311;BME280;8773;43.300;0.394;2024-01-16T07:31:48;99130.84;;;9.64;100.00
17311;BME280;8773;43.300;0.394;2024-01-16T07:34:16;99131.81;;;9.55;100.00
17311;BME280;8773;43.300;0.394;2024-01-16T07:36:44;99140.13;;;9.43;100.00
17311;BME280;8773;43.300;0.394;2024-01-16T07:39:11;99131.63;;;9.48;100.00
17311;BME280;8773;43.300;0.394;2024-01-16T07:41:38;99129.50;;;9.60;100.00
17311;BME280;8773;43.300;0.394;2024-01-16T07:44:06;99125.38;;;9.73;100.00
17311;BME280;8773;43.300;0.394;2024-01-16T07:46:33;99131.16;;;9.61;100.00
17311;BME280;8773;43.300;0.394;2024-01-16T07:49:00;99144.53;;;9.77;100.00
17311;BME280;8773;43.300;0.394;2024-01-16T07:51:29;99140.03;;;9.78;100.00
17311;BME280;8773;43.300;0.394;2024-01-16T07:54:05;99134.19;;;9.74;100.00
17311;BME280;8773;43.300;0.394;2024-01-16T07:56:33;99135.38;;;9.80;100.00
17311;BME280;8773;43.300;0.394;2024-01-16T07:59:00;99137.84;;;9.81;100.00
17311;BME280;8773;43.300;0.394;2024-01-16T08:01:28;99139.88;;;9.95;100.00
17311;BME280;8773;43.300;0.394;2024-01-16T08:03:55;99139.06;;;10.03;100.00
17311;BME280;8773;43.300;0.394;2024-01-16T08:06:23;99142.41;;;10.13;100.00
17311;BME280;8773;43.300;0.394;2024-01-16T08:08:52;99148.06;;;10.10;100.00
17311;BME280;8773;43.300;0.394;2024-01-16T08:11:19;99143.56;;;10.11;100.00
17311;BME280;8773;43.300;0.394;2024-01-16T08:13:47;99154.56;;;10.16;100.00
17311;BME280;8773;43.300;0.394;2024-01-16T08:16:14;99145.69;;;10.31;100.00
17311;BME280;8773;43.300;0.394;2024-01-16T08:18:41;99146.53;;;10.40;100.00
17311;BME280;8773;43.300;0.394;2024-01-16T08:21:09;99151.19;;;10.54;100.00
17311;BME280;8773;43.300;0.394;2024-01-16T08:23:36;99151.00;;;10.64;100.00
17311;BME280;8773;43.300;0.394;2024-01-16T08:26:05;99146.34;;;10.58;100.00
17311;BME280;8773;43.300;0.394;2024-01-16T08:28:32;99146.00;;;10.61;100.00
17311;BME280;8773;43.300;0.394;2024-01-16T08:31:00;99154.53;;;10.48;100.00
17311;BME280;8773;43.300;0.394;2024-01-16T08:33:27;99141.81;;;10.58;100.00
17311;BME280;8773;43.300;0.394;2024-01-16T08:36:09;99139.06;;;10.83;100.00
17311;BME280;8773;43.300;0.394;2024-01-16T08:38:36;99135.59;;;10.74;100.00
17311;BME280;8773;43.300;0.394;2024-01-16T08:41:05;99133.53;;;10.92;100.00
17311;BME280;8773;43.300;0.394;2024-01-16T08:43:32;99132.81;;;11.06;100.00
17311;BME280;8773;43.300;0.394;2024-01-16T08:46:00;99119.28;;;11.08;100.00
17311;BME280;8773;43.300;0.394;2024-01-16T08:48:27;99136.78;;;11.10;100.00
17311;BME280;8773;43.300;0.394;2024-01-16T08:50:54;99131.06;;;11.22;100.00
17311;BME280;8773;43.300;0.394;2024-01-16T08:53:22;99130.00;;;11.39;100.00
17311;BME280;8773;43.300;0.394;2024-01-16T08:55:50;99130.97;;;11.46;100.00
17311;BME280;8773;43.300;0.394;2024-01-16T08:58:19;99131.69;;;11.63;100.00
17311;BME280;8773;43.300;0.394;2024-01-16T09:00:46;99131.50;;;11.64;100.00
17311;BME280;8773;43.300;0.394;2024-01-16T09:03:13;99136.78;;;11.72;100.00
17311;BME280;8773;43.300;0.394;2024-01-16T09:05:41;99139.66;;;11.71;100.00
17311;BME280;8773;43.300;0.394;2024-01-16T09:08:08;99135.56;;;11.83;100.00
17311;BME280;8773;43.300;0.394;2024-01-16T09:10:39;99140.72;;;11.85;100.00
17311;BME280;8773;43.300;0.394;2024-01-16T09:13:08;99147.44;;;11.81;100.00
17311;BME280;8773;43.300;0.394;2024-01-16T09:15:36;99143.69;;;11.67;100.00
17311;BME280;8773;43.300;0.394;2024-01-16T09:18:05;99144.81;;;11.72;100.00
17311;BME280;8773;43.300;0.394;2024-01-16T09:20:32;99144.59;;;11.82;100.00
17311;BME280;8773;43.300;0.394;2024-01-16T09:22:59;99153.66;;;11.73;100.00
17311;BME280;8773;43.300;0.394;2024-01-16T09:25:27;99143.56;;;11.83;100.00
17311;BME280;8773;43.300;0.394;2024-01-16T09:27:54;99143.34;;;11.93;100.00
17311;BME280;8773;43.300;0.394;2024-01-16T09:30:21;99137.00;;;12.08;100.00
17311;BME280;8773;43.300;0.394;2024-01-16T09:32:50;99133.88;;;12.05;100.00
17311;BME280;8773;43.300;0.394;2024-01-16T09:35:18;99137.63;;;12.33;100.00
17311;BME280;8773;43.300;0.394;2024-01-16T09:37:45;99128.31;;;12.44;100.00
17311;BME280;8773;43.300;0.394;2024-01-16T09:40:13;99123.00;;;12.59;100.00
17311;BME280;8773;43.300;0.394;2024-01-16T09:42:40;99125.69;;;12.73;100.00
17311;BME280;8773;43.300;0.394;2024-01-16T09:45:08;99116.53;;;12.97;100.00
17311;BME280;8773;43.300;0.394;2024-01-16T09:47:36;99125.94;;;13.23;100.00
17311;BME280;8773;43.300;0.394;2024-01-16T09:50:06;99117.91;;;13.44;100.00
17311;BME280;8773;43.300;0.394;2024-01-16T09:52:34;99124.06;;;13.59;100.00
17311;BME280;8773;43.300;0.394;2024-01-16T09:55:01;99106.22;;;13.66;100.00
17311;BME280;8773;43.300;0.394;2024-01-16T09:57:29;99114.56;;;13.78;100.00
17311;BME280;8773;43.300;0.394;2024-01-16T09:59:57;99124.53;;;13.84;100.00
17311;BME280;8773;43.300;0.394;2024-01-16T10:02:27;99123.78;;;13.90;100.00
17311;BME280;8773;43.300;0.394;2024-01-16T10:04:54;99127.88;;;13.86;100.00
17311;BME280;8773;43.300;0.394;2024-01-16T10:07:25;99129.53;;;13.87;100.00
17311;BME280;8773;43.300;0.394;2024-01-16T10:09:55;99134.06;;;13.87;100.00
17311;BME280;8773;43.300;0.394;2024-01-16T10:12:22;99131.06;;;13.96;100.00
17311;BME280;8773;43.300;0.394;2024-01-16T10:14:50;99131.66;;;13.92;100.00
17311;BME280;8773;43.300;0.394;2024-01-16T10:17:18;99126.03;;;13.87;100.00
17311;BME280;8773;43.300;0.394;2024-01-16T10:19:49;99127.50;;;13.89;100.00
17311;BME280;8773;43.300;0.394;2024-01-16T10:22:20;99121.59;;;13.79;100.00
17311;BME280;8773;43.300;0.394;2024-01-16T10:25:04;99116.34;;;13.71;100.00
17311;BME280;8773;43.300;0.394;2024-01-16T10:27:31;99115.34;;;13.72;100.00
17311;BME280;8773;43.300;0.394;2024-01-16T10:29:58;99114.66;;;13.85;100.00
17311;BME280;8773;43.300;0.394;2024-01-16T10:32:27;99112.84;;;13.92;100.00
17311;BME280;8773;43.300;0.394;2024-01-16T10:35:02;99108.63;;;14.04;100.00
17311;BME280;8773;43.300;0.394;2024-01-16T10:37:30;99103.47;;;14.02;100.00
17311;BME280;8773;43.300;0.394;2024-01-16T10:39:58;99102.25;;;14.05;100.00
17311;BME280;8773;43.300;0.394;2024-01-16T10:42:26;99100.13;;;14.00;100.00
17311;BME280;8773;43.300;0.394;2024-01-16T10:44:54;99092.59;;;14.11;100.00
17311;BME280;8773;43.300;0.394;2024-01-16T10:47:21;99091.50;;;14.05;100.00
17311;BME280;8773;43.300;0.394;2024-01-16T10:49:49;99086.81;;;14.14;100.00
17311;BME280;8773;43.300;0.394;2024-01-16T10:52:18;99085.13;;;14.06;100.00
17311;BME280;8773;43.300;0.394;2024-01-16T10:54:49;99075.41;;;14.05;100.00
17311;BME280;8773;43.300;0.394;2024-01-16T10:57:17;99074.22;;;14.14;100.00
17311;BME280;8773;43.300;0.394;2024-01-16T10:59:50;99073.59;;;14.12;100.00
17311;BME280;8773;43.300;0.394;2024-01-16T11:02:20;99057.06;;;14.15;100.00
17311;BME280;8773;43.300;0.394;2024-01-16T11:04:52;99066.97;;;14.15;100.00
17311;BME280;8773;43.300;0.394;2024-01-16T11:07:21;99052.84;;;14.27;100.00
17311;BME280;8773;43.300;0.394;2024-01-16T11:09:49;99047.94;;;14.37;100.00
17311;BME280;8773;43.300;0.394;2024-01-16T11:12:16;99045.91;;;14.39;100.00
17311;BME280;8773;43.300;0.394;2024-01-16T11:14:47;99042.91;;;14.56;100.00
17311;BME280;8773;43.300;0.394;2024-01-16T11:17:17;99039.16;;;14.57;100.00
17311;BME280;8773;43.300;0.394;2024-01-16T11:19:46;99030.53;;;14.68;100.00
17311;BME280;8773;43.300;0.394;2024-01-16T11:22:34;99026.00;;;14.68;100.00
17311;BME280;8773;43.300;0.394;2024-01-16T11:25:10;99028.41;;;14.50;100.00
17311;BME280;8773;43.300;0.394;2024-01-16T11:27:37;99021.81;;;14.53;100.00
17311;BME280;8773;43.300;0.394;2024-01-16T11:30:08;99012.97;;;14.65;100.00
17311;BME280;8773;43.300;0.394;2024-01-16T11:32:37;99012.53;;;14.62;100.00
17311;BME280;8773;43.300;0.394;2024-01-16T11:35:06;99012.31;;;14.63;100.00
17311;BME280;8773;43.300;0.394;2024-01-16T11:37:35;99003.75;;;14.81;100.00
17311;BME280;8773;43.300;0.394;2024-01-16T11:40:22;98997.00;;;14.98;100.00
17311;BME280;8773;43.300;0.394;2024-01-16T11:42:50;98989.13;;;15.03;100.00
17311;BME280;8773;43.300;0.394;2024-01-16T11:45:50;98987.75;;;15.21;100.00
17311;BME280;8773;43.300;0.394;2024-01-16T11:48:18;98981.78;;;15.38;100.00
17311;BME280;8773;43.300;0.394;2024-01-16T11:50:46;98969.16;;;15.32;100.00
17311;BME280;8773;43.300;0.394;2024-01-16T11:53:35;98964.38;;;15.54;100.00
17311;BME280;8773;43.300;0.394;2024-01-16T11:59:32;98948.66;;;15.25;100.00
17311;BME280;8773;43.300;0.394;2024-01-16T12:02:14;98940.19;;;15.41;100.00
17311;BME280;8773;43.300;0.394;2024-01-16T12:04:52;98941.81;;;15.55;100.00
17311;BME280;8773;43.300;0.394;2024-01-16T12:07:19;98942.03;;;15.73;100.00
17311;BME280;8773;43.300;0.394;2024-01-16T12:09:46;98933.56;;;15.24;100.00
17311;BME280;8773;43.300;0.394;2024-01-16T12:12:15;98925.66;;;15.02;100.00
17311;BME280;8773;43.300;0.394;2024-01-16T12:14:50;98915.13;;;15.21;100.00
17311;BME280;8773;43.300;0.394;2024-01-16T12:17:19;98924.84;;;15.48;100.00
17311;BME280;8773;43.300;0.394;2024-01-16T12:19:47;98925.88;;;15.73;100.00
17311;BME280;8773;43.300;0.394;2024-01-16T12:22:16;98909.94;;;15.72;98.12
17311;BME280;8773;43.300;0.394;2024-01-16T12:24:43;98893.81;;;15.59;100.00
17311;BME280;8773;43.300;0.394;2024-01-16T12:27:11;98888.41;;;15.72;100.00
17311;BME280;8773;43.300;0.394;2024-01-16T12:29:38;98885.56;;;15.21;98.75
17311;BME280;8773;43.300;0.394;2024-01-16T12:32:07;98885.16;;;15.24;100.00
17311;BME280;8773;43.300;0.394;2024-01-16T12:34:43;98874.78;;;15.08;99.96
17311;BME280;8773;43.300;0.394;2024-01-16T12:37:11;98875.63;;;15.15;98.50
17311;BME280;8773;43.300;0.394;2024-01-16T12:39:39;98872.72;;;15.10;99.01
17311;BME280;8773;43.300;0.394;2024-01-16T12:42:06;98860.91;;;15.44;99.34
17311;BME280;8773;43.300;0.394;2024-01-16T12:44:34;98853.63;;;15.70;98.90
17311;BME280;8773;43.300;0.394;2024-01-16T12:47:02;98860.28;;;15.68;99.60
17311;BME280;8773;43.300;0.394;2024-01-16T12:49:30;98850.13;;;15.83;96.24
17311;BME280;8773;43.300;0.394;2024-01-16T12:52:21;98846.53;;;15.96;95.62
17311;BME280;8773;43.300;0.394;2024-01-16T12:54:58;98837.00;;;16.00;96.98
17311;BME280;8773;43.300;0.394;2024-01-16T12:57:25;98832.03;;;15.97;94.56
17311;BME280;8773;43.300;0.394;2024-01-16T12:59:53;98823.16;;;15.90;93.92
17311;BME280;8773;43.300;0.394;2024-01-16T13:02:21;98822.00;;;15.53;95.74
17311;BME280;8773;43.300;0.394;2024-01-16T13:04:56;98805.44;;;15.76;97.75
17311;BME280;8773;43.300;0.394;2024-01-16T13:07:25;98801.41;;;15.91;97.25
17311;BME280;8773;43.300;0.394;2024-01-16T13:10:06;98805.19;;;15.84;97.41
17311;BME280;8773;43.300;0.394;2024-01-16T13:12:34;98813.06;;;15.85;96.51